KCNW/CNW METAR and TAF weather

Enter ICAO airport designator
Station Type Date Time Source
KCNW METAR 2018/10/21 03:55 UTC NOAA

KCNW 210355Z 01005KT 10SM SKC 15/10 A3029


Station Type Date Time Source
KCNW Decoded METAR 2018/10/21 03:55 UTC NOAA

Station name not available
Oct 20, 2018 - 11:55 PM EDT / 2018.10.21 0355 UTC
Wind: from the N (010 degrees) at 6 MPH (5 KT):0
Visibility: 10 mile(s):0
Sky conditions: clear
Temperature: 59 F (15 C)
Dew Point: 50 F (10 C)
Relative Humidity: 72%
Pressure (altimeter): 30.29 in. Hg (1025 hPa)
ob: KCNW 210355Z 01005KT 10SM SKC 15/10 A3029
cycle: 4

Station Type Date Time Source
KCNW TAF UTC NOAA

Error!


Example: see airport list